sensor_id;sensor_type;location;lat;lon;timestamp;P1;durP1;ratioP1;P2;durP2;ratioP2
52740;SDS011;38634;52.138;9.912;2023-03-04T00:01:10;10.63;;;3.92;;
52740;SDS011;38634;52.138;9.912;2023-03-04T00:03:55;15.52;;;5.53;;
52740;SDS011;38634;52.138;9.912;2023-03-04T00:06:39;11.93;;;3.28;;
52740;SDS011;38634;52.138;9.912;2023-03-04T00:09:24;9.98;;;3.22;;
52740;SDS011;38634;52.138;9.912;2023-03-04T00:12:09;7.32;;;3.67;;
52740;SDS011;38634;52.138;9.912;2023-03-04T00:14:53;9.98;;;3.08;;
52740;SDS011;38634;52.138;9.912;2023-03-04T00:17:38;8.30;;;3.60;;
52740;SDS011;38634;52.138;9.912;2023-03-04T00:20:22;9.93;;;3.22;;
52740;SDS011;38634;52.138;9.912;2023-03-04T00:23:07;10.85;;;3.33;;
52740;SDS011;38634;52.138;9.912;2023-03-04T00:25:51;9.85;;;3.10;;
52740;SDS011;38634;52.138;9.912;2023-03-04T00:28:36;8.05;;;3.20;;
52740;SDS011;38634;52.138;9.912;2023-03-04T00:31:21;9.45;;;2.85;;
52740;SDS011;38634;52.138;9.912;2023-03-04T00:34:06;9.52;;;3.22;;
52740;SDS011;38634;52.138;9.912;2023-03-04T00:36:51;7.22;;;2.47;;
52740;SDS011;38634;52.138;9.912;2023-03-04T00:39:35;7.68;;;3.20;;
52740;SDS011;38634;52.138;9.912;2023-03-04T00:42:20;3.50;;;2.13;;
52740;SDS011;38634;52.138;9.912;2023-03-04T00:45:05;9.13;;;3.03;;
52740;SDS011;38634;52.138;9.912;2023-03-04T00:47:50;6.35;;;2.38;;
52740;SDS011;38634;52.138;9.912;2023-03-04T00:50:35;7.78;;;2.88;;
52740;SDS011;38634;52.138;9.912;2023-03-04T00:53:20;8.02;;;2.72;;
52740;SDS011;38634;52.138;9.912;2023-03-04T00:56:06;8.57;;;2.85;;
52740;SDS011;38634;52.138;9.912;2023-03-04T00:58:51;9.43;;;3.08;;
52740;SDS011;38634;52.138;9.912;2023-03-04T01:01:35;6.07;;;3.03;;
52740;SDS011;38634;52.138;9.912;2023-03-04T11:27:57;13.52;;;3.33;;
52740;SDS011;38634;52.138;9.912;2023-03-04T11:31:12;14.30;;;3.17;;
52740;SDS011;38634;52.138;9.912;2023-03-04T11:38:15;13.02;;;4.15;;
52740;SDS011;38634;52.138;9.912;2023-03-04T11:40:42;11.30;;;3.10;;
52740;SDS011;38634;52.138;9.912;2023-03-04T11:43:38;11.23;;;3.08;;
52740;SDS011;38634;52.138;9.912;2023-03-04T11:52:59;13.32;;;3.28;;
52740;SDS011;38634;52.138;9.912;2023-03-04T12:02:33;13.02;;;3.35;;
52740;SDS011;38634;52.138;9.912;2023-03-04T12:31:24;13.02;;;3.15;;
52740;SDS011;38634;52.138;9.912;2023-03-04T12:56:50;11.43;;;2.92;;
52740;SDS011;38634;52.138;9.912;2023-03-04T13:03:05;12.13;;;2.92;;
52740;SDS011;38634;52.138;9.912;2023-03-04T13:12:21;13.75;;;2.97;;
52740;SDS011;38634;52.138;9.912;2023-03-04T13:17:53;10.75;;;3.15;;
52740;SDS011;38634;52.138;9.912;2023-03-04T13:21:22;14.32;;;4.43;;
52740;SDS011;38634;52.138;9.912;2023-03-04T13:42:00;23.02;;;6.68;;
52740;SDS011;38634;52.138;9.912;2023-03-04T13:47:42;20.17;;;5.80;;
52740;SDS011;38634;52.138;9.912;2023-03-04T13:50:28;28.95;;;7.80;;
52740;SDS011;38634;52.138;9.912;2023-03-04T13:59:27;32.42;;;8.25;;
52740;SDS011;38634;52.138;9.912;2023-03-04T14:02:19;22.98;;;6.38;;
52740;SDS011;38634;52.138;9.912;2023-03-04T14:05:05;39.42;;;8.77;;
52740;SDS011;38634;52.138;9.912;2023-03-04T14:07:53;38.08;;;8.35;;
52740;SDS011;38634;52.138;9.912;2023-03-04T14:10:38;22.35;;;6.15;;
52740;SDS011;38634;52.138;9.912;2023-03-04T14:13:23;27.48;;;7.45;;
52740;SDS011;38634;52.138;9.912;2023-03-04T14:16:08;36.70;;;8.23;;
52740;SDS011;38634;52.138;9.912;2023-03-04T14:18:57;30.25;;;6.68;;
52740;SDS011;38634;52.138;9.912;2023-03-04T14:21:46;21.92;;;5.40;;
52740;SDS011;38634;52.138;9.912;2023-03-04T14:24:31;25.08;;;6.88;;
52740;SDS011;38634;52.138;9.912;2023-03-04T14:27:15;40.25;;;9.40;;
52740;SDS011;38634;52.138;9.912;2023-03-04T14:30:01;42.95;;;9.07;;
52740;SDS011;38634;52.138;9.912;2023-03-04T14:32:53;24.08;;;6.85;;
52740;SDS011;38634;52.138;9.912;2023-03-04T14:35:44;30.85;;;7.70;;
52740;SDS011;38634;52.138;9.912;2023-03-04T14:38:32;39.97;;;9.10;;
52740;SDS011;38634;52.138;9.912;2023-03-04T14:41:24;20.58;;;5.93;;
52740;SDS011;38634;52.138;9.912;2023-03-04T14:44:30;39.78;;;9.57;;
52740;SDS011;38634;52.138;9.912;2023-03-04T14:50:20;24.80;;;7.10;;
52740;SDS011;38634;52.138;9.912;2023-03-04T14:58:53;21.60;;;6.10;;
52740;SDS011;38634;52.138;9.912;2023-03-04T15:01:43;45.00;;;10.65;;
52740;SDS011;38634;52.138;9.912;2023-03-04T15:04:28;45.55;;;10.35;;
52740;SDS011;38634;52.138;9.912;2023-03-04T15:07:14;25.02;;;6.43;;
52740;SDS011;38634;52.138;9.912;2023-03-04T15:10:12;48.83;;;10.68;;
52740;SDS011;38634;52.138;9.912;2023-03-04T15:12:57;41.72;;;9.20;;
52740;SDS011;38634;52.138;9.912;2023-03-04T15:15:45;19.92;;;5.65;;
52740;SDS011;38634;52.138;9.912;2023-03-04T15:18:30;20.70;;;5.35;;
52740;SDS011;38634;52.138;9.912;2023-03-04T15:24:03;44.75;;;10.15;;
52740;SDS011;38634;52.138;9.912;2023-03-04T15:26:51;27.17;;;6.75;;
52740;SDS011;38634;52.138;9.912;2023-03-04T15:29:35;21.90;;;5.88;;
52740;SDS011;38634;52.138;9.912;2023-03-04T15:32:27;25.90;;;6.55;;
52740;SDS011;38634;52.138;9.912;2023-03-04T15:35:13;39.53;;;9.07;;
52740;SDS011;38634;52.138;9.912;2023-03-04T15:37:59;18.42;;;5.43;;
52740;SDS011;38634;52.138;9.912;2023-03-04T15:40:45;22.50;;;6.82;;
52740;SDS011;38634;52.138;9.912;2023-03-04T15:43:29;34.35;;;8.23;;
52740;SDS011;38634;52.138;9.912;2023-03-04T15:46:14;44.83;;;9.32;;
52740;SDS011;38634;52.138;9.912;2023-03-04T15:48:59;47.42;;;10.32;;
52740;SDS011;38634;52.138;9.912;2023-03-04T15:51:43;30.73;;;8.07;;
52740;SDS011;38634;52.138;9.912;2023-03-04T15:54:28;18.35;;;4.95;;
52740;SDS011;38634;52.138;9.912;2023-03-04T15:57:19;24.23;;;6.40;;
52740;SDS011;38634;52.138;9.912;2023-03-04T16:00:07;44.10;;;10.50;;
52740;SDS011;38634;52.138;9.912;2023-03-04T16:02:54;21.58;;;6.18;;
52740;SDS011;38634;52.138;9.912;2023-03-04T16:05:38;23.65;;;6.32;;
52740;SDS011;38634;52.138;9.912;2023-03-04T16:08:23;29.70;;;7.15;;
52740;SDS011;38634;52.138;9.912;2023-03-04T16:11:15;44.65;;;9.82;;
52740;SDS011;38634;52.138;9.912;2023-03-04T16:14:05;23.73;;;6.68;;
52740;SDS011;38634;52.138;9.912;2023-03-04T16:16:49;25.50;;;7.13;;
52740;SDS011;38634;52.138;9.912;2023-03-04T16:19:35;45.75;;;10.02;;
52740;SDS011;38634;52.138;9.912;2023-03-04T16:22:22;46.15;;;9.95;;
52740;SDS011;38634;52.138;9.912;2023-03-04T16:25:09;19.73;;;5.30;;
52740;SDS011;38634;52.138;9.912;2023-03-04T16:27:55;20.77;;;5.85;;
52740;SDS011;38634;52.138;9.912;2023-03-04T16:30:45;46.42;;;10.65;;
52740;SDS011;38634;52.138;9.912;2023-03-04T16:33:30;43.00;;;9.60;;
52740;SDS011;38634;52.138;9.912;2023-03-04T16:39:19;43.78;;;11.13;;
52740;SDS011;38634;52.138;9.912;2023-03-04T16:42:08;18.60;;;5.22;;
52740;SDS011;38634;52.138;9.912;2023-03-04T16:45:01;38.95;;;9.45;;
52740;SDS011;38634;52.138;9.912;2023-03-04T16:47:46;39.40;;;9.68;;
52740;SDS011;38634;52.138;9.912;2023-03-04T16:50:31;17.10;;;5.82;;
52740;SDS011;38634;52.138;9.912;2023-03-04T16:56:12;35.92;;;8.95;;
52740;SDS011;38634;52.138;9.912;2023-03-04T16:58:59;21.05;;;6.07;;
52740;SDS011;38634;52.138;9.912;2023-03-04T17:01:44;21.13;;;7.13;;
52740;SDS011;38634;52.138;9.912;2023-03-04T17:04:28;22.60;;;6.82;;
52740;SDS011;38634;52.138;9.912;2023-03-04T17:07:13;34.20;;;8.20;;
52740;SDS011;38634;52.138;9.912;2023-03-04T17:09:58;33.90;;;7.25;;
52740;SDS011;38634;52.138;9.912;2023-03-04T17:12:43;27.45;;;6.90;;
52740;SDS011;38634;52.138;9.912;2023-03-04T17:15:27;20.80;;;5.93;;
52740;SDS011;38634;52.138;9.912;2023-03-04T17:18:12;22.95;;;6.25;;
52740;SDS011;38634;52.138;9.912;2023-03-04T17:21:01;38.65;;;9.50;;
52740;SDS011;38634;52.138;9.912;2023-03-04T17:23:47;36.20;;;8.25;;
52740;SDS011;38634;52.138;9.912;2023-03-04T17:26:31;27.25;;;6.93;;
52740;SDS011;38634;52.138;9.912;2023-03-04T17:29:17;21.15;;;6.28;;
52740;SDS011;38634;52.138;9.912;2023-03-04T17:32:01;31.00;;;7.75;;
52740;SDS011;38634;52.138;9.912;2023-03-04T17:34:46;46.67;;;10.48;;
52740;SDS011;38634;52.138;9.912;2023-03-04T17:37:31;43.53;;;9.82;;
52740;SDS011;38634;52.138;9.912;2023-03-04T17:40:15;24.75;;;6.25;;
52740;SDS011;38634;52.138;9.912;2023-03-04T17:43:00;17.70;;;5.28;;
52740;SDS011;38634;52.138;9.912;2023-03-04T17:45:45;26.73;;;6.47;;
52740;SDS011;38634;52.138;9.912;2023-03-04T17:48:30;43.88;;;10.32;;
52740;SDS011;38634;52.138;9.912;2023-03-04T17:51:15;40.45;;;9.10;;
52740;SDS011;38634;52.138;9.912;2023-03-04T17:54:00;40.47;;;10.10;;
52740;SDS011;38634;52.138;9.912;2023-03-04T17:56:45;23.35;;;6.57;;
52740;SDS011;38634;52.138;9.912;2023-03-04T17:59:30;27.40;;;7.38;;
52740;SDS011;38634;52.138;9.912;2023-03-04T18:02:15;32.35;;;8.00;;
52740;SDS011;38634;52.138;9.912;2023-03-04T18:05:01;38.67;;;9.35;;
52740;SDS011;38634;52.138;9.912;2023-03-04T18:07:49;25.30;;;6.57;;
52740;SDS011;38634;52.138;9.912;2023-03-04T18:10:34;27.30;;;7.00;;
52740;SDS011;38634;52.138;9.912;2023-03-04T18:13:18;18.27;;;5.72;;
52740;SDS011;38634;52.138;9.912;2023-03-04T18:16:03;36.00;;;8.63;;
52740;SDS011;38634;52.138;9.912;2023-03-04T18:18:48;39.88;;;9.85;;
52740;SDS011;38634;52.138;9.912;2023-03-04T18:21:33;33.22;;;8.10;;
52740;SDS011;38634;52.138;9.912;2023-03-04T18:24:18;22.58;;;7.18;;
52740;SDS011;38634;52.138;9.912;2023-03-04T18:27:02;30.20;;;7.13;;
52740;SDS011;38634;52.138;9.912;2023-03-04T18:29:47;44.03;;;9.55;;
52740;SDS011;38634;52.138;9.912;2023-03-04T18:32:32;49.72;;;10.77;;
52740;SDS011;38634;52.138;9.912;2023-03-04T18:35:16;51.83;;;12.35;;
52740;SDS011;38634;52.138;9.912;2023-03-04T18:38:02;18.83;;;5.20;;
52740;SDS011;38634;52.138;9.912;2023-03-04T18:40:47;21.13;;;5.85;;
52740;SDS011;38634;52.138;9.912;2023-03-04T18:43:31;27.58;;;6.80;;
52740;SDS011;38634;52.138;9.912;2023-03-04T18:49:05;26.40;;;7.53;;
52740;SDS011;38634;52.138;9.912;2023-03-04T18:51:51;15.98;;;5.97;;
52740;SDS011;38634;52.138;9.912;2023-03-04T18:54:36;16.77;;;5.78;;
52740;SDS011;38634;52.138;9.912;2023-03-04T18:57:21;25.98;;;7.85;;
52740;SDS011;38634;52.138;9.912;2023-03-04T19:00:06;34.28;;;8.38;;
52740;SDS011;38634;52.138;9.912;2023-03-04T19:05:44;22.13;;;5.57;;
52740;SDS011;38634;52.138;9.912;2023-03-04T19:08:29;22.52;;;7.63;;
52740;SDS011;38634;52.138;9.912;2023-03-04T19:11:14;37.60;;;8.50;;
52740;SDS011;38634;52.138;9.912;2023-03-04T19:13:58;41.22;;;11.75;;
52740;SDS011;38634;52.138;9.912;2023-03-04T19:16:43;14.63;;;6.32;;
52740;SDS011;38634;52.138;9.912;2023-03-04T19:19:28;13.40;;;5.25;;
52740;SDS011;38634;52.138;9.912;2023-03-04T19:22:12;12.30;;;5.80;;
52740;SDS011;38634;52.138;9.912;2023-03-04T19:24:57;19.88;;;7.55;;
52740;SDS011;38634;52.138;9.912;2023-03-04T19:27:41;15.07;;;6.93;;
52740;SDS011;38634;52.138;9.912;2023-03-04T19:30:26;16.88;;;7.20;;
52740;SDS011;38634;52.138;9.912;2023-03-04T19:33:13;8.80;;;4.85;;
52740;SDS011;38634;52.138;9.912;2023-03-04T19:35:58;13.25;;;5.07;;
52740;SDS011;38634;52.138;9.912;2023-03-04T19:38:46;24.25;;;8.00;;
52740;SDS011;38634;52.138;9.912;2023-03-04T19:41:31;30.77;;;7.50;;
52740;SDS011;38634;52.138;9.912;2023-03-04T19:44:16;20.23;;;6.65;;
52740;SDS011;38634;52.138;9.912;2023-03-04T19:47:01;17.65;;;5.63;;
52740;SDS011;38634;52.138;9.912;2023-03-04T19:49:46;18.17;;;6.45;;
52740;SDS011;38634;52.138;9.912;2023-03-04T19:52:31;25.90;;;6.80;;
52740;SDS011;38634;52.138;9.912;2023-03-04T19:55:16;23.50;;;8.60;;
52740;SDS011;38634;52.138;9.912;2023-03-04T19:58:01;27.52;;;7.43;;
52740;SDS011;38634;52.138;9.912;2023-03-04T20:00:45;14.65;;;4.97;;
52740;SDS011;38634;52.138;9.912;2023-03-04T20:03:30;18.65;;;6.38;;
52740;SDS011;38634;52.138;9.912;2023-03-04T20:06:15;20.83;;;7.25;;
52740;SDS011;38634;52.138;9.912;2023-03-04T20:08:59;27.15;;;8.52;;
52740;SDS011;38634;52.138;9.912;2023-03-04T20:11:45;25.38;;;8.40;;
52740;SDS011;38634;52.138;9.912;2023-03-04T20:14:31;10.65;;;4.15;;
52740;SDS011;38634;52.138;9.912;2023-03-04T20:17:17;8.45;;;4.63;;
52740;SDS011;38634;52.138;9.912;2023-03-04T20:20:01;16.23;;;6.80;;
52740;SDS011;38634;52.138;9.912;2023-03-04T20:22:46;18.52;;;6.97;;
52740;SDS011;38634;52.138;9.912;2023-03-04T20:25:31;19.83;;;6.97;;
52740;SDS011;38634;52.138;9.912;2023-03-04T20:28:15;10.25;;;4.85;;
52740;SDS011;38634;52.138;9.912;2023-03-04T20:31:15;8.77;;;4.35;;
52740;SDS011;38634;52.138;9.912;2023-03-04T20:34:09;8.77;;;4.55;;
52740;SDS011;38634;52.138;9.912;2023-03-04T20:36:54;8.88;;;4.22;;
52740;SDS011;38634;52.138;9.912;2023-03-04T20:39:39;19.00;;;7.30;;
52740;SDS011;38634;52.138;9.912;2023-03-04T20:42:24;16.88;;;6.95;;
52740;SDS011;38634;52.138;9.912;2023-03-04T20:45:08;19.00;;;7.57;;
52740;SDS011;38634;52.138;9.912;2023-03-04T20:47:53;17.02;;;5.10;;
52740;SDS011;38634;52.138;9.912;2023-03-04T20:50:38;11.25;;;4.65;;
52740;SDS011;38634;52.138;9.912;2023-03-04T20:53:23;13.07;;;5.72;;
52740;SDS011;38634;52.138;9.912;2023-03-04T20:56:07;14.43;;;6.65;;
52740;SDS011;38634;52.138;9.912;2023-03-04T20:58:52;20.23;;;8.60;;
52740;SDS011;38634;52.138;9.912;2023-03-04T21:01:41;12.30;;;5.32;;
52740;SDS011;38634;52.138;9.912;2023-03-04T21:04:27;10.80;;;5.43;;
52740;SDS011;38634;52.138;9.912;2023-03-04T21:07:11;14.93;;;5.70;;
52740;SDS011;38634;52.138;9.912;2023-03-04T21:09:56;20.40;;;7.80;;
52740;SDS011;38634;52.138;9.912;2023-03-04T21:12:41;17.10;;;7.20;;
52740;SDS011;38634;52.138;9.912;2023-03-04T21:15:25;17.60;;;8.00;;
52740;SDS011;38634;52.138;9.912;2023-03-04T21:18:10;9.85;;;4.82;;
52740;SDS011;38634;52.138;9.912;2023-03-04T21:20:54;13.35;;;5.82;;
52740;SDS011;38634;52.138;9.912;2023-03-04T21:23:39;13.10;;;5.93;;
52740;SDS011;38634;52.138;9.912;2023-03-04T21:26:24;29.33;;;8.88;;
52740;SDS011;38634;52.138;9.912;2023-03-04T21:29:12;27.17;;;8.77;;
52740;SDS011;38634;52.138;9.912;2023-03-04T21:32:00;11.82;;;5.38;;
52740;SDS011;38634;52.138;9.912;2023-03-04T21:35:09;10.25;;;5.18;;
52740;SDS011;38634;52.138;9.912;2023-03-04T21:37:56;11.63;;;5.45;;
52740;SDS011;38634;52.138;9.912;2023-03-04T21:40:41;20.73;;;7.70;;
52740;SDS011;38634;52.138;9.912;2023-03-04T21:43:25;43.78;;;10.25;;
52740;SDS011;38634;52.138;9.912;2023-03-04T21:46:11;22.10;;;7.25;;
52740;SDS011;38634;52.138;9.912;2023-03-04T21:48:56;13.07;;;5.40;;
52740;SDS011;38634;52.138;9.912;2023-03-04T21:51:41;13.93;;;5.65;;
52740;SDS011;38634;52.138;9.912;2023-03-04T21:54:26;13.32;;;5.45;;
52740;SDS011;38634;52.138;9.912;2023-03-04T21:57:11;21.15;;;7.82;;
52740;SDS011;38634;52.138;9.912;2023-03-04T21:59:56;16.67;;;4.28;;
52740;SDS011;38634;52.138;9.912;2023-03-04T22:02:41;11.20;;;3.45;;
52740;SDS011;38634;52.138;9.912;2023-03-04T22:05:26;11.35;;;3.50;;
52740;SDS011;38634;52.138;9.912;2023-03-04T22:08:11;11.30;;;3.28;;
52740;SDS011;38634;52.138;9.912;2023-03-04T22:10:56;10.93;;;3.58;;
52740;SDS011;38634;52.138;9.912;2023-03-04T22:13:45;9.70;;;3.22;;
52740;SDS011;38634;52.138;9.912;2023-03-04T22:16:33;9.10;;;3.05;;
52740;SDS011;38634;52.138;9.912;2023-03-04T22:19:18;8.93;;;3.25;;
52740;SDS011;38634;52.138;9.912;2023-03-04T22:22:02;6.07;;;2.97;;
52740;SDS011;38634;52.138;9.912;2023-03-04T22:24:47;8.82;;;3.47;;
52740;SDS011;38634;52.138;9.912;2023-03-04T22:27:31;6.78;;;3.17;;
52740;SDS011;38634;52.138;9.912;2023-03-04T22:30:16;12.35;;;3.83;;
52740;SDS011;38634;52.138;9.912;2023-03-04T22:33:02;9.95;;;3.28;;
52740;SDS011;38634;52.138;9.912;2023-03-04T22:35:46;9.80;;;3.30;;
52740;SDS011;38634;52.138;9.912;2023-03-04T22:38:31;7.95;;;3.72;;
52740;SDS011;38634;52.138;9.912;2023-03-04T22:41:16;8.00;;;3.10;;
52740;SDS011;38634;52.138;9.912;2023-03-04T22:44:02;12.10;;;4.75;;
52740;SDS011;38634;52.138;9.912;2023-03-04T22:46:48;13.27;;;3.65;;
52740;SDS011;38634;52.138;9.912;2023-03-04T22:49:33;10.43;;;3.45;;
52740;SDS011;38634;52.138;9.912;2023-03-04T22:52:17;9.13;;;3.05;;
52740;SDS011;38634;52.138;9.912;2023-03-04T22:55:02;11.05;;;3.50;;
52740;SDS011;38634;52.138;9.912;2023-03-04T22:57:47;15.05;;;4.03;;
52740;SDS011;38634;52.138;9.912;2023-03-04T23:00:32;17.33;;;4.30;;
52740;SDS011;38634;52.138;9.912;2023-03-04T23:03:17;11.90;;;3.28;;
52740;SDS011;38634;52.138;9.912;2023-03-04T23:06:02;11.93;;;3.40;;
52740;SDS011;38634;52.138;9.912;2023-03-04T23:08:54;7.10;;;3.35;;
52740;SDS011;38634;52.138;9.912;2023-03-04T23:11:40;8.50;;;3.45;;
52740;SDS011;38634;52.138;9.912;2023-03-04T23:14:24;15.15;;;4.15;;
52740;SDS011;38634;52.138;9.912;2023-03-04T23:17:09;12.32;;;3.33;;
52740;SDS011;38634;52.138;9.912;2023-03-04T23:19:53;9.75;;;3.28;;
52740;SDS011;38634;52.138;9.912;2023-03-04T23:22:38;10.10;;;3.38;;
52740;SDS011;38634;52.138;9.912;2023-03-04T23:25:22;8.80;;;3.33;;
52740;SDS011;38634;52.138;9.912;2023-03-04T23:28:08;7.38;;;3.22;;
52740;SDS011;38634;52.138;9.912;2023-03-04T23:30:53;6.75;;;2.88;;
52740;SDS011;38634;52.138;9.912;2023-03-04T23:33:37;6.85;;;3.15;;
52740;SDS011;38634;52.138;9.912;2023-03-04T23:36:23;6.43;;;2.95;;
52740;SDS011;38634;52.138;9.912;2023-03-04T23:39:11;10.57;;;3.47;;
52740;SDS011;38634;52.138;9.912;2023-03-04T23:41:56;7.28;;;3.28;;
52740;SDS011;38634;52.138;9.912;2023-03-04T23:44:40;11.85;;;3.63;;
52740;SDS011;38634;52.138;9.912;2023-03-04T23:47:25;9.25;;;3.08;;
52740;SDS011;38634;52.138;9.912;2023-03-04T23:50:10;6.53;;;3.05;;
52740;SDS011;38634;52.138;9.912;2023-03-04T23:52:57;4.60;;;2.50;;
52740;SDS011;38634;52.138;9.912;2023-03-04T23:55:42;10.95;;;3.58;;
52740;SDS011;38634;52.138;9.912;2023-03-04T23:58:26;7.30;;;3.10;;
